createdAt,value
2022-11-17T09:58:52.312Z,9.68
2022-11-17T10:01:23.096Z,6.47
2022-11-17T10:06:22.380Z,5.63
2022-11-17T10:09:07.616Z,6.30
2022-11-17T10:11:39.963Z,3.97
2022-11-17T10:14:14.999Z,5.65
2022-11-17T10:16:47.641Z,4.97
2022-11-17T10:19:18.115Z,4.78
2022-11-17T10:21:48.545Z,4.18
2022-11-17T10:24:34.907Z,4.20
2022-11-17T10:27:04.428Z,6.55
2022-11-17T10:29:32.460Z,5.53
2022-11-17T10:32:09.190Z,4.60
2022-11-17T10:34:41.665Z,5.47
2022-11-17T10:37:25.784Z,2.78
2022-11-17T10:40:08.293Z,5.95
2022-11-17T10:42:35.903Z,4.53
2022-11-17T10:45:06.377Z,6.10
2022-11-17T10:47:39.690Z,5.57
2022-11-17T10:50:23.560Z,4.80
2022-11-17T10:52:56.310Z,6.50
2022-11-17T10:55:31.520Z,5.18
2022-11-17T10:58:03.205Z,5.80
2022-11-17T11:00:33.570Z,4.60
2022-11-17T11:03:18.448Z,5.30
2022-11-17T11:06:02.838Z,7.63
2022-11-17T11:08:52.445Z,4.00
2022-11-17T11:11:37.925Z,6.25
2022-11-17T11:14:14.416Z,6.82
2022-11-17T11:16:48.148Z,4.15
2022-11-17T11:19:20.117Z,6.43
2022-11-17T11:22:21.019Z,5.32
2022-11-17T11:24:55.498Z,3.75
2022-11-17T11:27:42.371Z,2.83
2022-11-17T11:30:12.760Z,5.05
2022-11-17T11:32:53.790Z,4.75
2022-11-17T11:35:37.424Z,5.60
2022-11-17T11:38:17.385Z,5.45
2022-11-17T11:43:31.495Z,4.70
2022-11-17T11:46:08.253Z,5.25
2022-11-17T11:48:40.915Z,7.00
2022-11-17T11:51:14.470Z,5.75
2022-11-17T11:53:49.398Z,4.80
2022-11-17T11:56:20.881Z,4.38
2022-11-17T11:58:54.582Z,4.57
2022-11-17T12:01:24.490Z,5.60
2022-11-17T12:06:42.633Z,3.70
2022-11-17T12:09:35.222Z,3.28
2022-11-17T12:12:08.831Z,3.53
2022-11-17T12:14:37.979Z,5.22
2022-11-17T12:17:24.223Z,5.38
2022-11-17T12:19:58.767Z,4.68
2022-11-17T12:23:04.653Z,4.68
2022-11-17T12:25:34.936Z,5.38
2022-11-17T12:28:28.092Z,4.68
2022-11-17T12:30:57.714Z,3.67
2022-11-17T12:33:45.456Z,4.88
2022-11-17T12:36:30.499Z,6.53
2022-11-17T12:39:01.404Z,5.25
2022-11-17T12:42:07.579Z,5.03
2022-11-17T12:44:49.851Z,7.20
2022-11-17T12:47:20.641Z,5.18
2022-11-17T12:50:16.772Z,4.75
2022-11-17T12:52:55.943Z,7.75
2022-11-17T12:55:35.993Z,6.45
2022-11-17T12:58:17.608Z,5.65
2022-11-17T13:00:54.194Z,7.43
2022-11-17T13:03:28.964Z,8.48
2022-11-17T13:06:33.594Z,6.22
2022-11-17T13:11:29.427Z,5.95
2022-11-17T13:14:15.301Z,7.45
2022-11-17T13:16:48.327Z,6.05
2022-11-17T13:19:41.322Z,6.78
2022-11-17T13:22:17.084Z,3.45
2022-11-17T13:24:47.025Z,8.35
2022-11-17T13:29:52.794Z,5.93
2022-11-17T13:32:23.695Z,6.68
2022-11-17T13:34:53.792Z,7.22
2022-11-17T13:37:24.065Z,7.10
2022-11-17T13:40:19.783Z,6.22
2022-11-17T13:42:49.489Z,6.55
2022-11-17T13:45:17.583Z,8.23
2022-11-17T13:47:47.321Z,7.05
2022-11-17T13:50:37.299Z,5.90
2022-11-17T13:53:24.721Z,6.65
2022-11-17T13:55:53.336Z,6.30
2022-11-17T13:58:28.708Z,6.45
2022-11-17T14:00:58.100Z,4.70
2022-11-17T14:03:38.124Z,6.72
2022-11-17T14:06:07.767Z,5.85
2022-11-17T14:08:36.807Z,6.50
2022-11-17T14:11:21.506Z,6.35
2022-11-17T14:13:52.183Z,6.13
2022-11-17T14:16:23.641Z,4.57
2022-11-17T14:19:00.314Z,4.80
2022-11-17T14:21:28.505Z,6.13
2022-11-17T14:24:11.213Z,4.53
2022-11-17T14:26:43.259Z,5.75
2022-11-17T14:29:14.347Z,4.28
2022-11-17T14:31:42.047Z,4.78
2022-11-17T14:34:09.941Z,6.18
2022-11-17T14:36:39.190Z,4.85
2022-11-17T14:39:14.745Z,5.95
2022-11-17T14:41:42.716Z,6.60
2022-11-17T14:44:11.825Z,6.25
2022-11-17T14:46:39.901Z,6.93
2022-11-17T14:49:08.012Z,7.07
2022-11-17T14:51:36.243Z,5.05
2022-11-17T14:54:04.034Z,7.20
2022-11-17T14:56:31.902Z,8.18
2022-11-17T14:59:00.917Z,7.68
2022-11-17T15:01:32.368Z,6.77
2022-11-17T15:04:15.337Z,5.75
2022-11-17T15:06:48.753Z,9.70
2022-11-17T15:09:16.845Z,7.57
2022-11-17T15:11:44.894Z,8.73
2022-11-17T15:14:12.709Z,8.52
2022-11-17T15:16:41.764Z,5.25
2022-11-17T15:19:09.479Z,7.30
2022-11-17T15:21:37.356Z,6.43
2022-11-17T15:24:06.366Z,7.78
2022-11-17T15:26:39.353Z,7.90
2022-11-17T15:29:07.094Z,6.03
2022-11-17T15:31:36.721Z,6.63
2022-11-17T15:34:05.706Z,7.95
2022-11-17T15:36:33.411Z,5.55
2022-11-17T15:39:03.561Z,8.77
2022-11-17T15:41:33.021Z,7.20
2022-11-17T15:44:04.095Z,6.90
2022-11-17T15:46:31.942Z,6.85
2022-11-17T15:48:59.761Z,5.30
2022-11-17T15:51:29.515Z,5.22
2022-11-17T15:53:58.456Z,5.63
2022-11-17T15:56:28.102Z,5.18
2022-11-17T15:58:57.461Z,9.07
2022-11-17T16:01:34.522Z,4.55
2022-11-17T16:04:03.826Z,4.40
2022-11-17T16:06:35.648Z,5.63
2022-11-17T16:09:03.822Z,7.88
2022-11-17T16:11:31.547Z,5.93
2022-11-17T16:14:00.672Z,6.47
2022-11-17T16:16:30.338Z,5.38
2022-11-17T16:18:58.243Z,6.38
2022-11-17T16:21:26.124Z,5.72
2022-11-17T16:23:56.672Z,4.75
2022-11-17T16:26:28.943Z,4.18
2022-11-17T16:28:58.901Z,5.15
2022-11-17T16:33:57.022Z,5.20
2022-11-17T16:36:28.938Z,4.72
2022-11-17T16:39:02.438Z,6.38
2022-11-17T16:41:33.131Z,4.72
2022-11-17T16:44:00.818Z,5.28
2022-11-17T16:46:30.497Z,6.47
2022-11-17T16:49:02.011Z,5.30
2022-11-17T16:51:32.475Z,5.60
2022-11-17T16:54:05.810Z,5.72
2022-11-17T16:56:34.869Z,5.60
2022-11-17T16:59:05.400Z,7.47
2022-11-17T17:01:34.665Z,5.22
2022-11-17T17:04:04.114Z,5.70
2022-11-17T17:06:31.763Z,6.97
2022-11-17T17:09:02.905Z,6.65
2022-11-17T17:11:33.353Z,7.05
2022-11-17T17:14:02.892Z,6.35
2022-11-17T17:16:31.575Z,6.72
2022-11-17T17:19:01.722Z,6.68
2022-11-17T17:21:30.174Z,11.90
2022-11-17T17:24:00.843Z,8.02
2022-11-17T17:26:33.305Z,9.45
2022-11-17T17:29:02.403Z,7.85
2022-11-17T17:31:34.598Z,6.22
2022-11-17T17:34:02.783Z,7.18
2022-11-17T17:36:31.191Z,6.13
2022-11-17T17:39:01.710Z,7.47
2022-11-17T17:41:33.429Z,4.82
2022-11-17T17:44:04.091Z,7.32
2022-11-17T17:46:42.704Z,6.97
2022-11-17T17:49:13.517Z,6.22
2022-11-17T17:51:44.652Z,5.90
2022-11-17T17:54:17.927Z,7.00
2022-11-17T17:56:48.830Z,6.13
2022-11-17T17:59:20.435Z,7.38
2022-11-17T18:01:49.529Z,6.13
2022-11-17T18:04:19.112Z,7.40
2022-11-17T18:06:48.279Z,6.53
2022-11-17T18:09:19.078Z,7.28
2022-11-17T18:11:51.194Z,7.78
2022-11-17T18:14:24.109Z,7.93
2022-11-17T18:16:52.649Z,7.60
2022-11-17T18:19:20.490Z,7.05
2022-11-17T18:21:50.073Z,6.38
2022-11-17T18:24:17.778Z,8.15
2022-11-17T18:26:46.440Z,8.43
2022-11-17T18:29:16.366Z,9.30
2022-11-17T18:31:47.381Z,9.13
2022-11-17T18:34:17.927Z,11.13
2022-11-17T18:36:45.656Z,9.85
2022-11-17T18:39:15.071Z,9.63
2022-11-17T18:41:43.018Z,8.70
2022-11-17T18:44:16.737Z,14.70
2022-11-17T18:46:48.037Z,16.98
2022-11-17T18:49:19.249Z,29.80
2022-11-17T18:51:47.268Z,17.80
2022-11-17T18:54:14.977Z,42.03
2022-11-17T18:56:44.445Z,15.57
2022-11-17T18:59:14.767Z,79.82
2022-11-17T19:01:49.454Z,30.25
2022-11-17T19:04:18.784Z,23.75
2022-11-17T19:06:46.473Z,46.83
2022-11-17T19:09:14.569Z,37.60
2022-11-17T19:11:45.002Z,22.50
2022-11-17T19:14:12.557Z,25.52
2022-11-17T19:16:45.300Z,36.97
2022-11-17T19:19:17.724Z,36.17
2022-11-17T19:21:50.553Z,36.00
2022-11-17T19:24:18.179Z,44.90
2022-11-17T19:26:45.978Z,58.60
2022-11-17T19:29:17.788Z,28.20
2022-11-17T19:31:46.414Z,21.30
2022-11-17T19:34:15.981Z,130.38
2022-11-17T19:36:44.544Z,33.20
2022-11-17T19:39:15.557Z,60.15
2022-11-17T19:41:47.599Z,117.90
2022-11-17T19:44:17.862Z,61.17
2022-11-17T19:46:45.488Z,160.95
2022-11-17T19:49:17.887Z,63.60
2022-11-17T19:51:45.779Z,214.27
2022-11-17T19:54:14.315Z,204.10
2022-11-17T19:56:41.921Z,185.32
2022-11-17T19:59:14.187Z,200.50
2022-11-17T20:01:46.167Z,275.65
2022-11-17T20:04:16.219Z,278.30
2022-11-17T20:06:45.303Z,297.40
2022-11-17T20:09:15.261Z,139.97
2022-11-17T20:11:43.706Z,183.55
2022-11-17T20:14:11.408Z,172.93
2022-11-17T20:16:41.189Z,177.90
2022-11-17T20:19:09.729Z,80.15
2022-11-17T20:21:39.930Z,153.52
2022-11-17T20:24:09.649Z,91.45
2022-11-17T20:26:40.538Z,112.47
2022-11-17T20:29:08.246Z,215.18
2022-11-17T20:31:39.254Z,223.73
2022-11-17T20:34:06.919Z,108.78
2022-11-17T20:36:35.290Z,188.60
2022-11-17T20:39:07.490Z,143.80
2022-11-17T20:41:36.605Z,232.50
2022-11-17T20:44:04.706Z,146.85
2022-11-17T20:46:32.509Z,181.35
2022-11-17T20:49:00.102Z,179.43
2022-11-17T20:51:29.402Z,174.73
2022-11-17T20:53:57.003Z,181.10
2022-11-17T20:56:24.584Z,184.30
2022-11-17T20:58:53.599Z,118.63
2022-11-17T21:01:24.352Z,240.70
2022-11-17T21:03:52.233Z,195.15
2022-11-17T21:06:22.970Z,192.77
2022-11-17T21:08:50.633Z,216.90
2022-11-17T21:11:34.021Z,123.55
2022-11-17T21:14:07.331Z,164.05
2022-11-17T21:16:38.231Z,77.35
2022-11-17T21:19:06.148Z,89.00
2022-11-17T21:21:33.770Z,210.70
2022-11-17T21:24:02.616Z,129.73
2022-11-17T21:26:30.620Z,157.25
2022-11-17T21:29:06.167Z,112.18
2022-11-17T21:31:47.349Z,144.90
2022-11-17T21:34:18.598Z,115.93
2022-11-17T21:36:46.263Z,222.13
2022-11-17T21:39:18.653Z,204.80
2022-11-17T21:41:46.464Z,182.70
2022-11-17T21:44:15.108Z,79.13
2022-11-17T21:46:42.699Z,167.00
2022-11-17T21:49:11.641Z,140.70
2022-11-17T21:51:39.264Z,124.88
2022-11-17T21:54:08.371Z,177.90
2022-11-17T21:56:36.465Z,163.45
2022-11-17T21:59:06.789Z,171.18
2022-11-17T22:01:35.533Z,212.32
2022-11-17T22:04:03.280Z,176.43
2022-11-17T22:06:32.221Z,212.30
2022-11-17T22:09:00.941Z,173.52
2022-11-17T22:11:37.456Z,204.77
2022-11-17T22:14:07.204Z,185.18
2022-11-17T22:16:35.983Z,186.90
2022-11-17T22:19:03.944Z,234.38
2022-11-17T22:21:33.388Z,185.32
2022-11-17T22:24:01.062Z,225.07
2022-11-17T22:26:28.698Z,251.65
2022-11-17T22:28:57.081Z,229.68
2022-11-17T22:31:24.961Z,266.08
2022-11-17T22:33:52.617Z,209.55
2022-11-17T22:36:20.443Z,217.77
2022-11-17T22:38:52.414Z,338.08
2022-11-17T22:41:21.432Z,234.02
2022-11-17T22:43:50.845Z,172.40
2022-11-17T22:46:19.688Z,182.45
2022-11-17T22:48:47.454Z,182.82
2022-11-17T22:51:36.542Z,163.82
2022-11-17T22:54:06.200Z,65.50
2022-11-17T22:56:33.931Z,239.45
2022-11-17T22:59:01.809Z,297.98
2022-11-17T23:01:29.620Z,275.33
2022-11-17T23:03:57.550Z,310.17
2022-11-17T23:06:27.160Z,296.08
2022-11-17T23:08:55.235Z,290.55
2022-11-17T23:11:39.554Z,198.75
2022-11-17T23:14:09.486Z,212.90
2022-11-17T23:19:05.870Z,171.85
2022-11-17T23:21:33.817Z,169.15
2022-11-17T23:24:01.538Z,226.73
2022-11-17T23:26:30.440Z,140.20
2022-11-17T23:28:58.034Z,198.25
2022-11-17T23:31:27.091Z,167.55
2022-11-17T23:33:54.805Z,173.03
2022-11-17T23:36:23.588Z,246.95
2022-11-17T23:38:52.197Z,372.60
2022-11-17T23:41:21.257Z,260.90
2022-11-17T23:43:52.771Z,328.40
2022-11-17T23:46:21.851Z,237.20
2022-11-17T23:48:50.146Z,343.83
2022-11-17T23:51:19.262Z,262.17
2022-11-17T23:53:47.238Z,317.25
2022-11-17T23:56:15.381Z,368.48
2022-11-17T23:58:44.102Z,213.13
